Taurus — WDB5562 — position and weather

sailwx.info

Track history (hours):
 
Tides and Currents Weather Stations Pressure Air Temp Water Temp Dewpoint Dewpoint Depression Visibility Wind Speed Wind Dir Waves Ship Positions

Taurus

Owner: Kirby Offshore Marine, LLC, Seattle, WA. More information available from US FCC via Universal Licensing System and Coast Guard Vessel Documentation Center.

Last reported at 2018-Jun-14 00:31 UTC. Time now 2018-Jun-18 01:26 UTC.
Position N 39°50' W 075°23'.

Length 24 m.

Type: Ship (hazmat cat B). MMSI: 366910990.

Date/timePositionNaut miles runAvg speedWind from/ knotsBaromVisibWave heightAir tempDewpointWater temp
2018-Jun-14 00:31N 39°50' W 075°23'0 0.0
2018-Jun-14 00:30N 39°50' W 075°23'1 1.6
2018-Jun-14 00:01N 39°50' W 075°22'4 7.2
2018-Jun-13 23:30N 39°51' W 075°18'4 8.3
2018-Jun-13 23:00N 39°52' W 075°12'4 7.7
2018-Jun-13 22:30N 39°54' W 075°08'3 6.8
2018-Jun-13 22:01N 39°57' W 075°08'1 1.2
2018-Jun-13 21:30N 39°57' W 075°08'3 5.6
2018-Jun-13 21:00N 39°54' W 075°08'2 4.9
2018-Jun-13 20:30N 39°53' W 075°11'3 5.8
2018-Jun-13 20:01N 39°52' W 075°14'3 6.0
2018-Jun-13 19:31N 39°51' W 075°18'1 2.4
2018-Jun-13 19:00N 39°51' W 075°19'3 6.0
2018-Jun-13 18:30N 39°50' W 075°23'0 0.0
2018-Jun-12 12:17N 39°50' W 075°23'0 0.0
2018-Jun-12 12:00N 39°50' W 075°23'0 0.0
2018-Jun-12 11:30N 39°50' W 075°23'0 0.0
2018-Jun-12 11:00N 39°50' W 075°23'0 0.0
2018-Jun-12 10:30N 39°50' W 075°23'0 0.0
2018-Jun-12 10:00N 39°50' W 075°23'0 0.0
2018-Jun-12 09:30N 39°50' W 075°23'0 0.0
2018-Jun-12 09:00N 39°50' W 075°23'0 0.0
2018-Jun-12 08:30N 39°50' W 075°23'0 0.0
2018-Jun-12 08:00N 39°50' W 075°23'0 0.0
2018-Jun-12 07:30N 39°50' W 075°23'0 0.0
2018-Jun-12 07:01N 39°50' W 075°23'0 0.0
2018-Jun-12 06:30N 39°50' W 075°23'0 0.0
2018-Jun-12 06:00N 39°50' W 075°23'0 0.0
2018-Jun-12 05:30N 39°50' W 075°23'0 0.0
2018-Jun-12 05:00N 39°50' W 075°23'0 0.0
2018-Jun-12 04:30N 39°50' W 075°23'0 0.0
2018-Jun-12 04:00N 39°50' W 075°23'0 0.0
2018-Jun-12 03:31N 39°50' W 075°23'3 6.2
2018-Jun-12 03:00N 39°51' W 075°19'1 2.6
2018-Jun-12 02:30N 39°51' W 075°18'2 4.2
2018-Jun-12 02:00N 39°51' W 075°15'3 5.8
2018-Jun-12 01:30N 39°53' W 075°12'3 5.4
2018-Jun-12 01:00N 39°53' W 075°08'3 5.9
2018-Jun-12 00:30N 39°56' W 075°08'1 2.4
2018-Jun-12 00:00N 39°57' W 075°08'2 4.2
2018-Jun-11 23:30N 39°55' W 075°08'3 5.3
2018-Jun-11 23:01N 39°53' W 075°10'3 5.7
2018-Jun-11 22:31N 39°52' W 075°13'3 5.9
2018-Jun-11 22:00N 39°51' W 075°17'1 2.5
2018-Jun-11 21:31N 39°51' W 075°18'3 6.3
2018-Jun-11 21:00N 39°50' W 075°22'2 3.6
2018-Jun-11 20:31N 39°49' W 075°24'1 2.4
2018-Jun-11 20:01N 39°50' W 075°23'0 0.0
2018-Jun-11 19:30N 39°50' W 075°23'0 0.0
2018-Jun-11 19:01N 39°50' W 075°23'0 0.0
2018-Jun-11 18:30N 39°50' W 075°23'0 0.0
2018-Jun-11 18:01N 39°50' W 075°23'0 0.0
2018-Jun-11 17:30N 39°50' W 075°23'0 0.0
2018-Jun-11 17:01N 39°50' W 075°23'0 0.0
2018-Jun-11 16:30N 39°50' W 075°23'0 0.0
2018-Jun-11 16:00N 39°50' W 075°23'0 0.0
2018-Jun-11 15:30N 39°50' W 075°23'0 0.0
2018-Jun-11 15:01N 39°50' W 075°23'0 0.0
2018-Jun-11 14:30N 39°50' W 075°23'0 0.0
2018-Jun-11 14:00N 39°50' W 075°23'0 0.0
2018-Jun-11 13:30N 39°50' W 075°23'0 0.0
2018-Jun-11 13:00N 39°50' W 075°23'0 0.0
2018-Jun-11 12:30N 39°50' W 075°23'0 0.0
2018-Jun-11 11:59N 39°50' W 075°23'0 0.0
2018-Jun-11 11:30N 39°50' W 075°23'0 0.0
2018-Jun-11 11:00N 39°50' W 075°23'0 0.0
2018-Jun-11 10:30N 39°50' W 075°23'0 0.0
2018-Jun-11 09:58N 39°50' W 075°23'0 0.0
2018-Jun-11 09:30N 39°50' W 075°23'0 0.0
2018-Jun-11 09:00N 39°50' W 075°23'0 0.0
2018-Jun-11 08:30N 39°50' W 075°23'0 0.0
2018-Jun-11 08:00N 39°50' W 075°23'0 0.0
2018-Jun-11 07:30N 39°50' W 075°23'0 0.0
2018-Jun-11 07:01N 39°50' W 075°23'0 0.0
2018-Jun-11 06:31N 39°50' W 075°23'0 0.0
2018-Jun-11 06:01N 39°50' W 075°23'0 0.0
2018-Jun-11 05:30N 39°50' W 075°23'0 0.0
2018-Jun-11 05:00N 39°50' W 075°23'0 0.0
2018-Jun-11 04:30N 39°50' W 075°23'0 0.0
2018-Jun-11 04:00N 39°50' W 075°23'0 0.0
2018-Jun-11 03:30N 39°50' W 075°23'0 0.0
2018-Jun-11 03:00N 39°50' W 075°23'0 0.0
2018-Jun-11 02:30N 39°50' W 075°23'0 0.0
2018-Jun-11 01:55N 39°50' W 075°23'0 0.0
2018-Jun-11 01:20N 39°50' W 075°23'0 0.0
2018-Jun-11 01:00N 39°50' W 075°23'0 0.0
2018-Jun-11 00:28N 39°50' W 075°23'0 0.0
2018-Jun-10 23:58N 39°50' W 075°23'0 0.0
2018-Jun-10 23:24N 39°50' W 075°23'0 0.0
2018-Jun-10 23:00N 39°50' W 075°23'0 0.0
2018-Jun-10 22:27N 39°50' W 075°23'0 0.0
2018-Jun-10 21:56N 39°50' W 075°23'0 0.0
2018-Jun-10 21:30N 39°50' W 075°23'0 0.0
2018-Jun-10 20:55N 39°50' W 075°23'0 0.0
2018-Jun-10 20:26N 39°50' W 075°23'0 0.0
2018-Jun-10 20:00N 39°50' W 075°23'0 0.0
2018-Jun-10 19:24N 39°50' W 075°23'0 0.0
2018-Jun-10 18:58N 39°50' W 075°23'0 0.0
2018-Jun-10 18:26N 39°50' W 075°23'0 0.0
2018-Jun-10 17:51N 39°50' W 075°23'5 8.7
2018-Jun-10 17:20N 39°51' W 075°17'410.1
2018-Jun-10 16:56N 39°52' W 075°12'1 2.9
2018-Jun-10 16:30N 39°54' W 075°12'0 0.3
2018-Jun-10 15:59N 39°54' W 075°12'0 0.0
2018-Jun-10 15:28N 39°54' W 075°12'2 3.7
2018-Jun-10 14:56N 39°53' W 075°09'7 6.8
2018-Jun-10 13:59N 39°59' W 075°05'2 3.2
2018-Jun-10 13:22N 39°58' W 075°07'2 4.9
2018-Jun-10 12:56N 39°56' W 075°08'3 7.3
2018-Jun-10 12:30N 39°53' W 075°10'3 4.9
2018-Jun-10 11:59N 39°54' W 075°13'0 0.0
2018-Jun-09 22:13N 39°54' W 075°13'0 0.1
2018-Jun-09 22:00N 39°54' W 075°13'0 0.5
2018-Jun-09 21:25N 39°54' W 075°12'1 3.1
2018-Jun-09 21:00N 39°52' W 075°12'1 2.7
2018-Jun-09 20:30N 39°53' W 075°11'3 5.6
2018-Jun-09 19:53N 39°56' W 075°08'2 4.9
2018-Jun-09 19:24N 39°58' W 075°07'2 4.0
2018-Jun-09 18:50N 39°59' W 075°05'0 0.1
2018-Jun-09 18:27N 39°59' W 075°05'0 0.0
2018-Jun-09 17:58N 39°59' W 075°05'0 0.0
2018-Jun-09 17:26N 39°59' W 075°05'0 0.0
2018-Jun-09 16:50N 39°59' W 075°05'0 0.0
2018-Jun-09 16:26N 39°59' W 075°05'0 0.0
2018-Jun-09 15:57N 39°59' W 075°05'0 0.0
2018-Jun-09 15:00N 39°59' W 075°05'0 0.0
2018-Jun-09 14:28N 39°59' W 075°05'0 0.0
2018-Jun-09 13:57N 39°59' W 075°05'0 0.0
2018-Jun-09 13:30N 39°59' W 075°05'0 0.0
2018-Jun-09 13:00N 39°59' W 075°05'0 0.0
2018-Jun-09 12:23N 39°59' W 075°05'0 0.0
2018-Jun-09 11:59N 39°59' W 075°05'0 0.0
2018-Jun-09 11:29N 39°59' W 075°05'0 0.4
2018-Jun-09 11:00N 39°59' W 075°05'3 6.4
2018-Jun-09 10:29N 39°57' W 075°08'4 7.3
2018-Jun-09 10:00N 39°53' W 075°09'3 5.8
2018-Jun-09 09:27N 39°54' W 075°13'1 0.1
2018-Jun-08 19:55N 39°54' W 075°12'2 5.8
2018-Jun-08 19:31N 39°52' W 075°13'4 7.6
2018-Jun-08 19:00N 39°51' W 075°18'4 7.2
2018-Jun-08 18:30N 39°50' W 075°23'0 0.6
2018-Jun-08 18:01N 39°50' W 075°23'0 0.0
2018-Jun-08 17:30N 39°50' W 075°23'0 0.0
2018-Jun-08 17:00N 39°50' W 075°23'0 0.0
2018-Jun-08 16:30N 39°50' W 075°23'0 0.0
2018-Jun-08 16:00N 39°50' W 075°23'2 3.3
2018-Jun-08 15:31N 39°50' W 075°21'5 9.1
2018-Jun-08 15:00N 39°51' W 075°15'1 1.9
2018-Jun-08 14:30N 39°51' W 075°14'0 0.0
2018-Jun-08 14:00N 39°51' W 075°14'2 3.9
2018-Jun-08 13:30N 39°53' W 075°12'3 6.1
2018-Jun-08 13:00N 39°53' W 075°08'1 1.1
2018-Jun-08 12:30N 39°54' W 075°08'2 3.2
2018-Jun-08 12:00N 39°53' W 075°10'5 9.4
2018-Jun-08 11:30N 39°51' W 075°16'5 9.6
2018-Jun-08 11:00N 39°50' W 075°22'1 2.3
2018-Jun-08 10:30N 39°50' W 075°23'3 5.9
2018-Jun-08 10:00N 39°51' W 075°20'4 7.5
2018-Jun-08 09:30N 39°51' W 075°15'3 0.2
2018-Jun-07 20:53N 39°54' W 075°12'1 1.6
2018-Jun-07 20:30N 39°54' W 075°13'2 3.3
2018-Jun-07 20:00N 39°53' W 075°11'3 6.3
2018-Jun-07 19:30N 39°55' W 075°08'4 7.2
2018-Jun-07 19:00N 39°58' W 075°06'2 3.1
2018-Jun-07 18:30N 39°59' W 075°05'0 0.0
2018-Jun-07 18:00N 39°59' W 075°05'0 0.0
2018-Jun-07 17:30N 39°59' W 075°05'0 0.0
2018-Jun-07 17:00N 39°59' W 075°05'0 0.0
2018-Jun-07 16:30N 39°59' W 075°05'0 0.0
2018-Jun-07 16:00N 39°59' W 075°05'0 0.0
2018-Jun-07 15:30N 39°59' W 075°05'0 0.0
2018-Jun-07 15:00N 39°59' W 075°05'0 0.0
2018-Jun-07 14:30N 39°59' W 075°05'0 0.0
2018-Jun-07 14:00N 39°59' W 075°05'0 0.0
2018-Jun-07 13:30N 39°59' W 075°05'0 0.0
2018-Jun-07 13:00N 39°59' W 075°05'0 0.2
2018-Jun-07 12:30N 39°59' W 075°05'4 7.5
2018-Jun-07 12:00N 39°56' W 075°08'4 7.3
2018-Jun-07 11:30N 39°53' W 075°10'1 0.1
2018-Jun-06 18:43N 39°53' W 075°12'2 8.7
2018-Jun-06 18:30N 39°52' W 075°14'4 8.0
2018-Jun-06 18:00N 39°51' W 075°19'3 5.1
2018-Jun-06 17:30N 39°49' W 075°22'0 0.1
2018-Jun-06 17:00N 39°49' W 075°22'0 0.5
2018-Jun-06 16:30N 39°50' W 075°22'0 0.1
2018-Jun-06 16:00N 39°50' W 075°21'2 4.2
2018-Jun-06 15:30N 39°51' W 075°19'510.3
2018-Jun-06 15:00N 39°52' W 075°13'2 0.1
2018-Jun-05 22:18N 39°54' W 075°13'0 1.0
2018-Jun-05 22:00N 39°54' W 075°12'2 4.1
2018-Jun-05 21:31N 39°53' W 075°10'2 4.3
2018-Jun-05 21:01N 39°54' W 075°08'2 4.9
2018-Jun-05 20:31N 39°57' W 075°08'2 4.1
2018-Jun-05 20:01N 39°58' W 075°07'2 3.3
2018-Jun-05 19:30N 39°59' W 075°05'0 0.0
2018-Jun-05 19:00N 39°59' W 075°05'0 0.0
2018-Jun-05 18:30N 39°59' W 075°05'0 0.0
2018-Jun-05 18:01N 39°59' W 075°05'0 0.0
2018-Jun-05 17:30N 39°59' W 075°05'1 2.0
2018-Jun-05 17:00N 39°58' W 075°06'3 6.5
2018-Jun-05 16:30N 39°56' W 075°08'3 6.3
2018-Jun-05 16:01N 39°53' W 075°10'3 6.8
2018-Jun-05 15:30N 39°52' W 075°14'3 6.6
2018-Jun-05 15:00N 39°51' W 075°18'0 0.1
2018-Jun-05 14:30N 39°51' W 075°18'4 8.4
2018-Jun-05 14:00N 39°52' W 075°13'4 8.3
2018-Jun-05 13:31N 39°54' W 075°08'3 6.3
2018-Jun-05 13:00N 39°57' W 075°08'3 5.7
2018-Jun-05 12:30N 39°59' W 075°05'0 0.0
2018-Jun-05 12:00N 39°59' W 075°05'0 0.0
2018-Jun-05 11:30N 39°59' W 075°05'0 0.2
2018-Jun-05 11:01N 39°59' W 075°04'4 7.2
2018-Jun-05 10:30N 39°57' W 075°08'4 7.7
2018-Jun-05 10:00N 39°53' W 075°09'3 5.5
2018-Jun-05 09:31N 39°54' W 075°13'1 1.6
2018-Jun-05 09:00N 39°54' W 075°12'1 0.1
2018-Jun-04 20:50N 39°53' W 075°12'410.6
2018-Jun-04 20:30N 39°51' W 075°16'510.7
2018-Jun-04 20:01N 39°50' W 075°23'0 0.5
2018-Jun-04 19:30N 39°50' W 075°23'1 1.1
2018-Jun-04 19:00N 39°50' W 075°22'3 5.7
2018-Jun-04 18:30N 39°51' W 075°19'3 6.8
2018-Jun-04 18:00N 39°51' W 075°15'3 6.9
2018-Jun-04 17:30N 39°53' W 075°11'1 1.4
2018-Jun-04 17:01N 39°53' W 075°12'2 3.6
2018-Jun-04 16:31N 39°55' W 075°13'1 2.5
2018-Jun-04 16:00N 39°54' W 075°12'0 0.0
2018-Jun-04 15:30N 39°54' W 075°12'0 0.0
2018-Jun-04 15:00N 39°54' W 075°12'0 0.0
2018-Jun-04 14:30N 39°54' W 075°12'0 0.0
2018-Jun-04 14:01N 39°54' W 075°12'1 1.2
2018-Jun-04 13:30N 39°53' W 075°12'4 7.3
2018-Jun-04 13:00N 39°51' W 075°16'2 3.3
2018-Jun-04 12:31N 39°51' W 075°18'0 0.2
2018-Jun-04 12:00N 39°51' W 075°18'0 0.0
2018-Jun-04 11:31N 39°51' W 075°18'0 0.0
2018-Jun-04 11:01N 39°51' W 075°18'0 0.0
2018-Jun-04 10:30N 39°51' W 075°18'2 4.8
2018-Jun-04 10:01N 39°51' W 075°15'3 6.7
2018-Jun-04 09:30N 39°54' W 075°12'  
Track history (hours):
 
Tides and Currents Weather Stations Pressure Air Temp Water Temp Dewpoint Dewpoint Depression Visibility Wind Speed Wind Dir Waves Ship Positions

Taurus

Owner: Kirby Offshore Marine, LLC, Seattle, WA. More information available from US FCC via Universal Licensing System and Coast Guard Vessel Documentation Center.

Last reported at 2018-Jun-14 00:31 UTC. Time now 2018-Jun-18 01:26 UTC.
Position N 39°50' W 075°23'.

Length 24 m.

Type: Ship (hazmat cat B). MMSI: 366910990.

Date/timePositionNaut miles runAvg speedWind from/ knotsBaromVisibWave heightAir tempDewpointWater temp
2018-Jun-14 00:31N 39°50' W 075°23'0 0.0
2018-Jun-14 00:30N 39°50' W 075°23'1 1.6
2018-Jun-14 00:01N 39°50' W 075°22'4 7.2
2018-Jun-13 23:30N 39°51' W 075°18'4 8.3
2018-Jun-13 23:00N 39°52' W 075°12'4 7.7
2018-Jun-13 22:30N 39°54' W 075°08'3 6.8
2018-Jun-13 22:01N 39°57' W 075°08'1 1.2
2018-Jun-13 21:30N 39°57' W 075°08'3 5.6
2018-Jun-13 21:00N 39°54' W 075°08'2 4.9
2018-Jun-13 20:30N 39°53' W 075°11'3 5.8
2018-Jun-13 20:01N 39°52' W 075°14'3 6.0
2018-Jun-13 19:31N 39°51' W 075°18'1 2.4
2018-Jun-13 19:00N 39°51' W 075°19'3 6.0
2018-Jun-13 18:30N 39°50' W 075°23'0 0.0
2018-Jun-12 12:17N 39°50' W 075°23'0 0.0
2018-Jun-12 12:00N 39°50' W 075°23'0 0.0
2018-Jun-12 11:30N 39°50' W 075°23'0 0.0
2018-Jun-12 11:00N 39°50' W 075°23'0 0.0
2018-Jun-12 10:30N 39°50' W 075°23'0 0.0
2018-Jun-12 10:00N 39°50' W 075°23'0 0.0
2018-Jun-12 09:30N 39°50' W 075°23'0 0.0
2018-Jun-12 09:00N 39°50' W 075°23'0 0.0
2018-Jun-12 08:30N 39°50' W 075°23'0 0.0
2018-Jun-12 08:00N 39°50' W 075°23'0 0.0
2018-Jun-12 07:30N 39°50' W 075°23'0 0.0
2018-Jun-12 07:01N 39°50' W 075°23'0 0.0
2018-Jun-12 06:30N 39°50' W 075°23'0 0.0
2018-Jun-12 06:00N 39°50' W 075°23'0 0.0
2018-Jun-12 05:30N 39°50' W 075°23'0 0.0
2018-Jun-12 05:00N 39°50' W 075°23'0 0.0
2018-Jun-12 04:30N 39°50' W 075°23'0 0.0
2018-Jun-12 04:00N 39°50' W 075°23'0 0.0
2018-Jun-12 03:31N 39°50' W 075°23'3 6.2
2018-Jun-12 03:00N 39°51' W 075°19'1 2.6
2018-Jun-12 02:30N 39°51' W 075°18'2 4.2
2018-Jun-12 02:00N 39°51' W 075°15'3 5.8
2018-Jun-12 01:30N 39°53' W 075°12'3 5.4
2018-Jun-12 01:00N 39°53' W 075°08'3 5.9
2018-Jun-12 00:30N 39°56' W 075°08'1 2.4
2018-Jun-12 00:00N 39°57' W 075°08'2 4.2
2018-Jun-11 23:30N 39°55' W 075°08'3 5.3
2018-Jun-11 23:01N 39°53' W 075°10'3 5.7
2018-Jun-11 22:31N 39°52' W 075°13'3 5.9
2018-Jun-11 22:00N 39°51' W 075°17'1 2.5
2018-Jun-11 21:31N 39°51' W 075°18'3 6.3
2018-Jun-11 21:00N 39°50' W 075°22'2 3.6
2018-Jun-11 20:31N 39°49' W 075°24'1 2.4
2018-Jun-11 20:01N 39°50' W 075°23'0 0.0
2018-Jun-11 19:30N 39°50' W 075°23'0 0.0
2018-Jun-11 19:01N 39°50' W 075°23'0 0.0
2018-Jun-11 18:30N 39°50' W 075°23'0 0.0
2018-Jun-11 18:01N 39°50' W 075°23'0 0.0
2018-Jun-11 17:30N 39°50' W 075°23'0 0.0
2018-Jun-11 17:01N 39°50' W 075°23'0 0.0
2018-Jun-11 16:30N 39°50' W 075°23'0 0.0
2018-Jun-11 16:00N 39°50' W 075°23'0 0.0
2018-Jun-11 15:30N 39°50' W 075°23'0 0.0
2018-Jun-11 15:01N 39°50' W 075°23'0 0.0
2018-Jun-11 14:30N 39°50' W 075°23'0 0.0
2018-Jun-11 14:00N 39°50' W 075°23'0 0.0
2018-Jun-11 13:30N 39°50' W 075°23'0 0.0
2018-Jun-11 13:00N 39°50' W 075°23'0 0.0
2018-Jun-11 12:30N 39°50' W 075°23'0 0.0
2018-Jun-11 11:59N 39°50' W 075°23'0 0.0
2018-Jun-11 11:30N 39°50' W 075°23'0 0.0
2018-Jun-11 11:00N 39°50' W 075°23'0 0.0
2018-Jun-11 10:30N 39°50' W 075°23'0 0.0
2018-Jun-11 09:58N 39°50' W 075°23'0 0.0
2018-Jun-11 09:30N 39°50' W 075°23'0 0.0
2018-Jun-11 09:00N 39°50' W 075°23'0 0.0
2018-Jun-11 08:30N 39°50' W 075°23'0 0.0
2018-Jun-11 08:00N 39°50' W 075°23'0 0.0
2018-Jun-11 07:30N 39°50' W 075°23'0 0.0
2018-Jun-11 07:01N 39°50' W 075°23'0 0.0
2018-Jun-11 06:31N 39°50' W 075°23'0 0.0
2018-Jun-11 06:01N 39°50' W 075°23'0 0.0
2018-Jun-11 05:30N 39°50' W 075°23'0 0.0
2018-Jun-11 05:00N 39°50' W 075°23'0 0.0
2018-Jun-11 04:30N 39°50' W 075°23'0 0.0
2018-Jun-11 04:00N 39°50' W 075°23'0 0.0
2018-Jun-11 03:30N 39°50' W 075°23'0 0.0
2018-Jun-11 03:00N 39°50' W 075°23'0 0.0
2018-Jun-11 02:30N 39°50' W 075°23'0 0.0
2018-Jun-11 01:55N 39°50' W 075°23'0 0.0
2018-Jun-11 01:20N 39°50' W 075°23'0 0.0
2018-Jun-11 01:00N 39°50' W 075°23'0 0.0
2018-Jun-11 00:28N 39°50' W 075°23'0 0.0
2018-Jun-10 23:58N 39°50' W 075°23'0 0.0
2018-Jun-10 23:24N 39°50' W 075°23'0 0.0
2018-Jun-10 23:00N 39°50' W 075°23'0 0.0
2018-Jun-10 22:27N 39°50' W 075°23'0 0.0
2018-Jun-10 21:56N 39°50' W 075°23'0 0.0
2018-Jun-10 21:30N 39°50' W 075°23'0 0.0
2018-Jun-10 20:55N 39°50' W 075°23'0 0.0
2018-Jun-10 20:26N 39°50' W 075°23'0 0.0
2018-Jun-10 20:00N 39°50' W 075°23'0 0.0
2018-Jun-10 19:24N 39°50' W 075°23'0 0.0
2018-Jun-10 18:58N 39°50' W 075°23'0 0.0
2018-Jun-10 18:26N 39°50' W 075°23'0 0.0
2018-Jun-10 17:51N 39°50' W 075°23'5 8.7
2018-Jun-10 17:20N 39°51' W 075°17'410.1
2018-Jun-10 16:56N 39°52' W 075°12'1 2.9
2018-Jun-10 16:30N 39°54' W 075°12'0 0.3
2018-Jun-10 15:59N 39°54' W 075°12'0 0.0
2018-Jun-10 15:28N 39°54' W 075°12'2 3.7
2018-Jun-10 14:56N 39°53' W 075°09'7 6.8
2018-Jun-10 13:59N 39°59' W 075°05'2 3.2
2018-Jun-10 13:22N 39°58' W 075°07'2 4.9
2018-Jun-10 12:56N 39°56' W 075°08'3 7.3
2018-Jun-10 12:30N 39°53' W 075°10'3 4.9
2018-Jun-10 11:59N 39°54' W 075°13'0 0.0
2018-Jun-09 22:13N 39°54' W 075°13'0 0.1
2018-Jun-09 22:00N 39°54' W 075°13'0 0.5
2018-Jun-09 21:25N 39°54' W 075°12'1 3.1
2018-Jun-09 21:00N 39°52' W 075°12'1 2.7
2018-Jun-09 20:30N 39°53' W 075°11'3 5.6
2018-Jun-09 19:53N 39°56' W 075°08'2 4.9
2018-Jun-09 19:24N 39°58' W 075°07'2 4.0
2018-Jun-09 18:50N 39°59' W 075°05'0 0.1
2018-Jun-09 18:27N 39°59' W 075°05'0 0.0
2018-Jun-09 17:58N 39°59' W 075°05'0 0.0
2018-Jun-09 17:26N 39°59' W 075°05'0 0.0
2018-Jun-09 16:50N 39°59' W 075°05'0 0.0
2018-Jun-09 16:26N 39°59' W 075°05'0 0.0
2018-Jun-09 15:57N 39°59' W 075°05'0 0.0
2018-Jun-09 15:00N 39°59' W 075°05'0 0.0
2018-Jun-09 14:28N 39°59' W 075°05'0 0.0
2018-Jun-09 13:57N 39°59' W 075°05'0 0.0
2018-Jun-09 13:30N 39°59' W 075°05'0 0.0
2018-Jun-09 13:00N 39°59' W 075°05'0 0.0
2018-Jun-09 12:23N 39°59' W 075°05'0 0.0
2018-Jun-09 11:59N 39°59' W 075°05'0 0.0
2018-Jun-09 11:29N 39°59' W 075°05'0 0.4
2018-Jun-09 11:00N 39°59' W 075°05'3 6.4
2018-Jun-09 10:29N 39°57' W 075°08'4 7.3
2018-Jun-09 10:00N 39°53' W 075°09'3 5.8
2018-Jun-09 09:27N 39°54' W 075°13'1 0.1
2018-Jun-08 19:55N 39°54' W 075°12'2 5.8
2018-Jun-08 19:31N 39°52' W 075°13'4 7.6
2018-Jun-08 19:00N 39°51' W 075°18'4 7.2
2018-Jun-08 18:30N 39°50' W 075°23'0 0.6
2018-Jun-08 18:01N 39°50' W 075°23'0 0.0
2018-Jun-08 17:30N 39°50' W 075°23'0 0.0
2018-Jun-08 17:00N 39°50' W 075°23'0 0.0
2018-Jun-08 16:30N 39°50' W 075°23'0 0.0
2018-Jun-08 16:00N 39°50' W 075°23'2 3.3
2018-Jun-08 15:31N 39°50' W 075°21'5 9.1
2018-Jun-08 15:00N 39°51' W 075°15'1 1.9
2018-Jun-08 14:30N 39°51' W 075°14'0 0.0
2018-Jun-08 14:00N 39°51' W 075°14'2 3.9
2018-Jun-08 13:30N 39°53' W 075°12'3 6.1
2018-Jun-08 13:00N 39°53' W 075°08'1 1.1
2018-Jun-08 12:30N 39°54' W 075°08'2 3.2
2018-Jun-08 12:00N 39°53' W 075°10'5 9.4
2018-Jun-08 11:30N 39°51' W 075°16'5 9.6
2018-Jun-08 11:00N 39°50' W 075°22'1 2.3
2018-Jun-08 10:30N 39°50' W 075°23'3 5.9
2018-Jun-08 10:00N 39°51' W 075°20'4 7.5
2018-Jun-08 09:30N 39°51' W 075°15'3 0.2
2018-Jun-07 20:53N 39°54' W 075°12'1 1.6
2018-Jun-07 20:30N 39°54' W 075°13'2 3.3
2018-Jun-07 20:00N 39°53' W 075°11'3 6.3
2018-Jun-07 19:30N 39°55' W 075°08'4 7.2
2018-Jun-07 19:00N 39°58' W 075°06'2 3.1
2018-Jun-07 18:30N 39°59' W 075°05'0 0.0
2018-Jun-07 18:00N 39°59' W 075°05'0 0.0
2018-Jun-07 17:30N 39°59' W 075°05'0 0.0
2018-Jun-07 17:00N 39°59' W 075°05'0 0.0
2018-Jun-07 16:30N 39°59' W 075°05'0 0.0
2018-Jun-07 16:00N 39°59' W 075°05'0 0.0
2018-Jun-07 15:30N 39°59' W 075°05'0 0.0
2018-Jun-07 15:00N 39°59' W 075°05'0 0.0
2018-Jun-07 14:30N 39°59' W 075°05'0 0.0
2018-Jun-07 14:00N 39°59' W 075°05'0 0.0
2018-Jun-07 13:30N 39°59' W 075°05'0 0.0
2018-Jun-07 13:00N 39°59' W 075°05'0 0.2
2018-Jun-07 12:30N 39°59' W 075°05'4 7.5
2018-Jun-07 12:00N 39°56' W 075°08'4 7.3
2018-Jun-07 11:30N 39°53' W 075°10'1 0.1
2018-Jun-06 18:43N 39°53' W 075°12'2 8.7
2018-Jun-06 18:30N 39°52' W 075°14'4 8.0
2018-Jun-06 18:00N 39°51' W 075°19'3 5.1
2018-Jun-06 17:30N 39°49' W 075°22'0 0.1
2018-Jun-06 17:00N 39°49' W 075°22'0 0.5
2018-Jun-06 16:30N 39°50' W 075°22'0 0.1
2018-Jun-06 16:00N 39°50' W 075°21'2 4.2
2018-Jun-06 15:30N 39°51' W 075°19'510.3
2018-Jun-06 15:00N 39°52' W 075°13'2 0.1
2018-Jun-05 22:18N 39°54' W 075°13'0 1.0
2018-Jun-05 22:00N 39°54' W 075°12'2 4.1
2018-Jun-05 21:31N 39°53' W 075°10'2 4.3
2018-Jun-05 21:01N 39°54' W 075°08'2 4.9
2018-Jun-05 20:31N 39°57' W 075°08'2 4.1
2018-Jun-05 20:01N 39°58' W 075°07'2 3.3
2018-Jun-05 19:30N 39°59' W 075°05'0 0.0
2018-Jun-05 19:00N 39°59' W 075°05'0 0.0
2018-Jun-05 18:30N 39°59' W 075°05'0 0.0
2018-Jun-05 18:01N 39°59' W 075°05'0 0.0
2018-Jun-05 17:30N 39°59' W 075°05'1 2.0
2018-Jun-05 17:00N 39°58' W 075°06'3 6.5
2018-Jun-05 16:30N 39°56' W 075°08'3 6.3
2018-Jun-05 16:01N 39°53' W 075°10'3 6.8
2018-Jun-05 15:30N 39°52' W 075°14'3 6.6
2018-Jun-05 15:00N 39°51' W 075°18'0 0.1
2018-Jun-05 14:30N 39°51' W 075°18'4 8.4
2018-Jun-05 14:00N 39°52' W 075°13'4 8.3
2018-Jun-05 13:31N 39°54' W 075°08'3 6.3
2018-Jun-05 13:00N 39°57' W 075°08'3 5.7
2018-Jun-05 12:30N 39°59' W 075°05'0 0.0
2018-Jun-05 12:00N 39°59' W 075°05'0 0.0
2018-Jun-05 11:30N 39°59' W 075°05'0 0.2
2018-Jun-05 11:01N 39°59' W 075°04'4 7.2
2018-Jun-05 10:30N 39°57' W 075°08'4 7.7
2018-Jun-05 10:00N 39°53' W 075°09'3 5.5
2018-Jun-05 09:31N 39°54' W 075°13'1 1.6
2018-Jun-05 09:00N 39°54' W 075°12'1 0.1
2018-Jun-04 20:50N 39°53' W 075°12'410.6
2018-Jun-04 20:30N 39°51' W 075°16'510.7
2018-Jun-04 20:01N 39°50' W 075°23'0 0.5
2018-Jun-04 19:30N 39°50' W 075°23'1 1.1
2018-Jun-04 19:00N 39°50' W 075°22'3 5.7
2018-Jun-04 18:30N 39°51' W 075°19'3 6.8
2018-Jun-04 18:00N 39°51' W 075°15'3 6.9
2018-Jun-04 17:30N 39°53' W 075°11'1 1.4
2018-Jun-04 17:01N 39°53' W 075°12'2 3.6
2018-Jun-04 16:31N 39°55' W 075°13'1 2.5
2018-Jun-04 16:00N 39°54' W 075°12'0 0.0
2018-Jun-04 15:30N 39°54' W 075°12'0 0.0
2018-Jun-04 15:00N 39°54' W 075°12'0 0.0
2018-Jun-04 14:30N 39°54' W 075°12'0 0.0
2018-Jun-04 14:01N 39°54' W 075°12'1 1.2
2018-Jun-04 13:30N 39°53' W 075°12'4 7.3
2018-Jun-04 13:00N 39°51' W 075°16'2 3.3
2018-Jun-04 12:31N 39°51' W 075°18'0 0.2
2018-Jun-04 12:00N 39°51' W 075°18'0 0.0
2018-Jun-04 11:31N 39°51' W 075°18'0 0.0
2018-Jun-04 11:01N 39°51' W 075°18'0 0.0
2018-Jun-04 10:30N 39°51' W 075°18'2 4.8
2018-Jun-04 10:01N 39°51' W 075°15'3 6.7
2018-Jun-04 09:30N 39°54' W 075°12'  

Dump ship's entire track history